sensor_id;sensor_type;location;lat;lon;timestamp;pressure;altitude;pressure_sealevel;temperature;humidity
59409;BME280;45213;32.654;-115.458;2023-02-24T00:01:54;101517.34;;;14.15;55.47
59409;BME280;45213;32.654;-115.458;2023-02-24T00:04:28;101526.00;;;14.08;58.00
59409;BME280;45213;32.654;-115.458;2023-02-24T00:06:55;101523.38;;;14.05;58.10
59409;BME280;45213;32.654;-115.458;2023-02-24T00:09:24;101520.72;;;14.00;56.85
59409;BME280;45213;32.654;-115.458;2023-02-24T00:11:57;101532.09;;;13.99;53.80
59409;BME280;45213;32.654;-115.458;2023-02-24T00:14:27;101532.13;;;14.07;54.42
59409;BME280;45213;32.654;-115.458;2023-02-24T00:16:55;101520.81;;;14.11;55.54
59409;BME280;45213;32.654;-115.458;2023-02-24T00:19:26;101519.94;;;14.13;56.59
59409;BME280;45213;32.654;-115.458;2023-02-24T00:21:53;101529.59;;;14.22;54.54
59409;BME280;45213;32.654;-115.458;2023-02-24T00:24:20;101535.72;;;14.23;55.29
59409;BME280;45213;32.654;-115.458;2023-02-24T00:26:52;101540.94;;;14.19;55.65
59409;BME280;45213;32.654;-115.458;2023-02-24T00:29:23;101540.03;;;14.19;55.04
59409;BME280;45213;32.654;-115.458;2023-02-24T00:31:56;101536.59;;;14.23;54.98
59409;BME280;45213;32.654;-115.458;2023-02-24T00:34:30;101536.63;;;14.26;56.21
59409;BME280;45213;32.654;-115.458;2023-02-24T00:36:58;101544.47;;;14.28;57.19
59409;BME280;45213;32.654;-115.458;2023-02-24T00:39:26;101546.16;;;14.16;56.35
59409;BME280;45213;32.654;-115.458;2023-02-24T00:41:57;101539.16;;;14.14;58.14
59409;BME280;45213;32.654;-115.458;2023-02-24T00:44:31;101540.03;;;14.13;57.97
59409;BME280;45213;32.654;-115.458;2023-02-24T00:46:59;101543.59;;;14.24;57.43
59409;BME280;45213;32.654;-115.458;2023-02-24T00:49:27;101547.91;;;14.19;57.58
59409;BME280;45213;32.654;-115.458;2023-02-24T00:51:56;101534.75;;;14.10;57.49
59409;BME280;45213;32.654;-115.458;2023-02-24T00:54:23;101549.63;;;14.17;57.42
59409;BME280;45213;32.654;-115.458;2023-02-24T00:56:54;101545.22;;;14.10;56.80
59409;BME280;45213;32.654;-115.458;2023-02-24T00:59:21;101558.31;;;14.10;57.36
59409;BME280;45213;32.654;-115.458;2023-02-24T01:01:49;101549.66;;;14.20;57.49
59409;BME280;45213;32.654;-115.458;2023-02-24T01:04:17;101554.88;;;14.18;57.51
59409;BME280;45213;32.654;-115.458;2023-02-24T01:06:48;101553.16;;;14.20;56.14
59409;BME280;45213;32.654;-115.458;2023-02-24T01:09:18;101548.75;;;14.16;54.75
59409;BME280;45213;32.654;-115.458;2023-02-24T01:11:47;101553.09;;;14.08;54.99
59409;BME280;45213;32.654;-115.458;2023-02-24T01:14:34;101552.19;;;14.06;54.29
59409;BME280;45213;32.654;-115.458;2023-02-24T01:17:01;101557.47;;;14.11;54.34
59409;BME280;45213;32.654;-115.458;2023-02-24T01:19:31;101555.75;;;14.19;54.51
59409;BME280;45213;32.654;-115.458;2023-02-24T01:22:03;101570.63;;;14.20;55.64
59409;BME280;45213;32.654;-115.458;2023-02-24T01:24:33;101574.09;;;14.19;55.78
59409;BME280;45213;32.654;-115.458;2023-02-24T01:27:00;101567.91;;;14.05;56.23
59409;BME280;45213;32.654;-115.458;2023-02-24T01:29:27;101573.13;;;14.02;54.89
59409;BME280;45213;32.654;-115.458;2023-02-24T01:31:54;101570.47;;;14.00;55.34
59409;BME280;45213;32.654;-115.458;2023-02-24T01:34:27;101573.13;;;14.08;55.63
59409;BME280;45213;32.654;-115.458;2023-02-24T01:36:56;101571.41;;;14.04;54.74
59409;BME280;45213;32.654;-115.458;2023-02-24T01:39:23;101567.03;;;14.04;54.57
59409;BME280;45213;32.654;-115.458;2023-02-24T01:41:51;101562.63;;;14.00;52.94
59409;BME280;45213;32.654;-115.458;2023-02-24T01:46:50;101575.75;;;14.02;50.23
59409;BME280;45213;32.654;-115.458;2023-02-24T01:51:51;101573.06;;;13.95;48.86
59409;BME280;45213;32.654;-115.458;2023-02-24T01:54:23;101556.38;;;13.81;48.01
59409;BME280;45213;32.654;-115.458;2023-02-24T01:56:53;101588.69;;;13.83;46.30
59409;BME280;45213;32.654;-115.458;2023-02-24T01:59:24;101593.06;;;13.86;45.75
59409;BME280;45213;32.654;-115.458;2023-02-24T02:01:56;101593.94;;;13.86;44.74
59409;BME280;45213;32.654;-115.458;2023-02-24T02:04:33;101596.56;;;13.86;45.47
59409;BME280;45213;32.654;-115.458;2023-02-24T02:07:02;101617.47;;;13.82;46.04
59409;BME280;45213;32.654;-115.458;2023-02-24T02:09:31;101619.94;;;13.66;46.02
59409;BME280;45213;32.654;-115.458;2023-02-24T02:11:59;101621.72;;;13.70;46.06
59409;BME280;45213;32.654;-115.458;2023-02-24T02:14:26;101624.41;;;13.76;45.22
59409;BME280;45213;32.654;-115.458;2023-02-24T02:17:18;101616.56;;;13.76;45.11
59409;BME280;45213;32.654;-115.458;2023-02-24T02:28:41;101610.28;;;13.59;48.53
59409;BME280;45213;32.654;-115.458;2023-02-24T02:36:20;101609.09;;;13.29;49.97
59409;BME280;45213;32.654;-115.458;2023-02-24T02:41:41;101609.97;;;13.33;49.45
59409;BME280;45213;32.654;-115.458;2023-02-24T02:44:18;101620.44;;;13.30;49.62
59409;BME280;45213;32.654;-115.458;2023-02-24T02:49:44;101615.19;;;13.30;50.23
59409;BME280;45213;32.654;-115.458;2023-02-24T02:52:41;101615.13;;;13.25;50.67
59409;BME280;45213;32.654;-115.458;2023-02-24T02:55:11;101630.78;;;13.22;51.43
59409;BME280;45213;32.654;-115.458;2023-02-24T02:57:45;101633.34;;;13.18;50.73
59409;BME280;45213;32.654;-115.458;2023-02-24T03:00:20;101641.19;;;13.19;50.38
59409;BME280;45213;32.654;-115.458;2023-02-24T03:02:52;101638.63;;;13.24;50.72
59409;BME280;45213;32.654;-115.458;2023-02-24T03:05:27;101646.53;;;13.27;49.93
59409;BME280;45213;32.654;-115.458;2023-02-24T03:07:57;101633.41;;;13.24;50.15
59409;BME280;45213;32.654;-115.458;2023-02-24T03:10:28;101633.41;;;13.24;49.78
59409;BME280;45213;32.654;-115.458;2023-02-24T03:12:57;101636.09;;;13.28;49.66
59409;BME280;45213;32.654;-115.458;2023-02-24T03:15:27;101651.69;;;13.21;49.37
59409;BME280;45213;32.654;-115.458;2023-02-24T03:18:02;101645.53;;;13.15;49.36
59409;BME280;45213;32.654;-115.458;2023-02-24T03:20:40;101648.94;;;13.11;49.20
59409;BME280;45213;32.654;-115.458;2023-02-24T03:23:14;101649.75;;;13.07;49.46
59409;BME280;45213;32.654;-115.458;2023-02-24T03:25:50;101657.66;;;13.10;49.37
59409;BME280;45213;32.654;-115.458;2023-02-24T03:28:29;101663.78;;;13.11;49.22
59409;BME280;45213;32.654;-115.458;2023-02-24T03:31:20;101659.34;;;13.07;49.49
59409;BME280;45213;32.654;-115.458;2023-02-24T03:34:05;101659.31;;;13.05;49.52
59409;BME280;45213;32.654;-115.458;2023-02-24T03:36:34;101658.41;;;13.03;51.09
59409;BME280;45213;32.654;-115.458;2023-02-24T03:39:01;101664.41;;;12.93;52.11
59409;BME280;45213;32.654;-115.458;2023-02-24T03:41:48;101661.69;;;12.87;52.45
59409;BME280;45213;32.654;-115.458;2023-02-24T03:44:23;101668.56;;;12.79;52.71
59409;BME280;45213;32.654;-115.458;2023-02-24T03:46:52;101662.44;;;12.77;52.36
59409;BME280;45213;32.654;-115.458;2023-02-24T03:49:21;101674.59;;;12.74;53.01
59409;BME280;45213;32.654;-115.458;2023-02-24T03:52:27;101679.59;;;12.59;53.33
59409;BME280;45213;32.654;-115.458;2023-02-24T03:58:17;101704.50;;;12.36;54.50
59409;BME280;45213;32.654;-115.458;2023-02-24T04:01:24;101710.63;;;12.38;55.10
59409;BME280;45213;32.654;-115.458;2023-02-24T04:12:55;101695.78;;;12.37;56.83
59409;BME280;45213;32.654;-115.458;2023-02-24T04:15:31;101691.50;;;12.40;56.56
59409;BME280;45213;32.654;-115.458;2023-02-24T04:18:08;101697.59;;;12.41;55.77
59409;BME280;45213;32.654;-115.458;2023-02-24T04:20:39;101699.13;;;12.28;55.74
59409;BME280;45213;32.654;-115.458;2023-02-24T04:23:16;101705.19;;;12.25;56.54
59409;BME280;45213;32.654;-115.458;2023-02-24T04:25:48;101713.16;;;12.35;56.03
59409;BME280;45213;32.654;-115.458;2023-02-24T04:28:18;101709.63;;;12.29;56.26
59409;BME280;45213;32.654;-115.458;2023-02-24T04:30:53;101701.78;;;12.29;56.25
59409;BME280;45213;32.654;-115.458;2023-02-24T04:33:22;101715.66;;;12.27;56.54
59409;BME280;45213;32.654;-115.458;2023-02-24T04:35:51;101711.09;;;12.14;55.98
59409;BME280;45213;32.654;-115.458;2023-02-24T04:38:19;101721.53;;;12.14;56.05
59409;BME280;45213;32.654;-115.458;2023-02-24T04:40:48;101720.59;;;12.10;56.27
59409;BME280;45213;32.654;-115.458;2023-02-24T04:43:16;101728.22;;;11.98;56.30
59409;BME280;45213;32.654;-115.458;2023-02-24T04:45:43;101741.31;;;12.01;57.40
59409;BME280;45213;32.654;-115.458;2023-02-24T04:48:10;101743.09;;;12.02;57.24
59409;BME280;45213;32.654;-115.458;2023-02-24T04:50:42;101744.81;;;12.03;57.16
59409;BME280;45213;32.654;-115.458;2023-02-24T04:53:15;101745.56;;;11.96;57.20
59409;BME280;45213;32.654;-115.458;2023-02-24T04:55:45;101739.22;;;11.84;57.41
59409;BME280;45213;32.654;-115.458;2023-02-24T04:58:20;101740.22;;;11.89;57.48
59409;BME280;45213;32.654;-115.458;2023-02-24T05:00:49;101743.75;;;11.90;57.57
59409;BME280;45213;32.654;-115.458;2023-02-24T05:03:19;101747.19;;;11.89;57.78
59409;BME280;45213;32.654;-115.458;2023-02-24T05:05:56;101756.69;;;11.87;57.36
59409;BME280;45213;32.654;-115.458;2023-02-24T05:08:26;101765.41;;;11.87;57.73
59409;BME280;45213;32.654;-115.458;2023-02-24T05:10:53;101756.66;;;11.85;57.53
59409;BME280;45213;32.654;-115.458;2023-02-24T05:13:24;101765.38;;;11.86;57.83
59409;BME280;45213;32.654;-115.458;2023-02-24T05:16:02;101761.97;;;11.88;56.94
59409;BME280;45213;32.654;-115.458;2023-02-24T05:18:30;101765.31;;;11.84;57.17
59409;BME280;45213;32.654;-115.458;2023-02-24T05:21:13;101771.94;;;11.67;57.01
59409;BME280;45213;32.654;-115.458;2023-02-24T05:23:58;101763.91;;;11.56;57.16
59409;BME280;45213;32.654;-115.458;2023-02-24T05:26:25;101764.56;;;11.46;57.94
59409;BME280;45213;32.654;-115.458;2023-02-24T05:28:53;101766.16;;;11.39;58.30
59409;BME280;45213;32.654;-115.458;2023-02-24T05:31:23;101781.16;;;11.51;58.39
59409;BME280;45213;32.654;-115.458;2023-02-24T05:33:59;101785.47;;;11.47;58.60
59409;BME280;45213;32.654;-115.458;2023-02-24T05:36:30;101774.34;;;11.56;58.47
59409;BME280;45213;32.654;-115.458;2023-02-24T05:38:57;101781.44;;;11.65;57.92
59409;BME280;45213;32.654;-115.458;2023-02-24T05:41:26;101783.88;;;11.54;58.30
59409;BME280;45213;32.654;-115.458;2023-02-24T05:44:03;101795.22;;;11.56;58.35
59409;BME280;45213;32.654;-115.458;2023-02-24T05:46:35;101796.88;;;11.53;57.88
59409;BME280;45213;32.654;-115.458;2023-02-24T05:49:11;101800.38;;;11.55;58.31
59409;BME280;45213;32.654;-115.458;2023-02-24T05:51:39;101800.53;;;11.62;58.05
59409;BME280;45213;32.654;-115.458;2023-02-24T05:54:10;101804.94;;;11.65;58.06
59409;BME280;45213;32.654;-115.458;2023-02-24T05:56:40;101806.66;;;11.64;58.54
59409;BME280;45213;32.654;-115.458;2023-02-24T05:59:10;101809.28;;;11.64;57.70
59409;BME280;45213;32.654;-115.458;2023-02-24T06:01:39;101806.53;;;11.57;58.25
59409;BME280;45213;32.654;-115.458;2023-02-24T06:04:08;101817.00;;;11.60;57.82
59409;BME280;45213;32.654;-115.458;2023-02-24T06:06:37;101812.75;;;11.63;58.14
59409;BME280;45213;32.654;-115.458;2023-02-24T06:09:10;101819.59;;;11.58;57.86
59409;BME280;45213;32.654;-115.458;2023-02-24T06:11:39;101816.91;;;11.55;57.82
59409;BME280;45213;32.654;-115.458;2023-02-24T06:14:08;101825.50;;;11.51;57.92
59409;BME280;45213;32.654;-115.458;2023-02-24T06:16:39;101825.47;;;11.48;58.36
59409;BME280;45213;32.654;-115.458;2023-02-24T06:19:08;101832.41;;;11.47;58.12
59409;BME280;45213;32.654;-115.458;2023-02-24T06:21:36;101832.25;;;11.41;58.37
59409;BME280;45213;32.654;-115.458;2023-02-24T06:24:13;101825.41;;;11.46;58.02
59409;BME280;45213;32.654;-115.458;2023-02-24T06:26:41;101816.66;;;11.43;58.35
59409;BME280;45213;32.654;-115.458;2023-02-24T06:29:15;101825.41;;;11.46;58.50
59409;BME280;45213;32.654;-115.458;2023-02-24T06:31:43;101822.06;;;11.52;58.79
59409;BME280;45213;32.654;-115.458;2023-02-24T06:34:10;101846.84;;;11.32;58.09
59409;BME280;45213;32.654;-115.458;2023-02-24T06:36:39;101857.16;;;11.28;57.70
59409;BME280;45213;32.654;-115.458;2023-02-24T06:39:06;101848.38;;;11.23;58.04
59409;BME280;45213;32.654;-115.458;2023-02-24T06:41:34;101846.69;;;11.25;59.21
59409;BME280;45213;32.654;-115.458;2023-02-24T06:44:03;101856.38;;;11.31;57.74
59409;BME280;45213;32.654;-115.458;2023-02-24T06:46:29;101856.19;;;11.23;58.20
59409;BME280;45213;32.654;-115.458;2023-02-24T06:48:56;101845.75;;;11.22;58.92
59409;BME280;45213;32.654;-115.458;2023-02-24T06:51:23;101842.22;;;11.20;58.48
59409;BME280;45213;32.654;-115.458;2023-02-24T06:53:56;101850.50;;;11.03;57.89
59409;BME280;45213;32.654;-115.458;2023-02-24T06:56:25;101853.00;;;10.99;57.90
59409;BME280;45213;32.654;-115.458;2023-02-24T06:58:53;101842.84;;;11.10;58.40
59409;BME280;45213;32.654;-115.458;2023-02-24T07:01:25;101840.44;;;11.17;58.62
59409;BME280;45213;32.654;-115.458;2023-02-24T07:03:55;101838.91;;;11.27;59.31
59409;BME280;45213;32.654;-115.458;2023-02-24T07:06:40;101843.25;;;11.26;58.73
59409;BME280;45213;32.654;-115.458;2023-02-24T07:09:09;101841.19;;;11.13;59.03
59409;BME280;45213;32.654;-115.458;2023-02-24T07:11:37;101833.09;;;11.02;59.39
59409;BME280;45213;32.654;-115.458;2023-02-24T07:14:07;101824.41;;;11.02;59.52
59409;BME280;45213;32.654;-115.458;2023-02-24T07:16:35;101828.56;;;10.94;60.73
59409;BME280;45213;32.654;-115.458;2023-02-24T07:19:04;101832.50;;;10.78;60.43
59409;BME280;45213;32.654;-115.458;2023-02-24T07:21:37;101835.38;;;10.89;59.93
59409;BME280;45213;32.654;-115.458;2023-02-24T07:24:13;101843.09;;;10.84;59.65
59409;BME280;45213;32.654;-115.458;2023-02-24T07:26:45;101847.38;;;10.82;60.44
59409;BME280;45213;32.654;-115.458;2023-02-24T07:29:16;101845.59;;;10.81;60.79
59409;BME280;45213;32.654;-115.458;2023-02-24T07:31:43;101848.03;;;10.73;61.69
59409;BME280;45213;32.654;-115.458;2023-02-24T07:34:10;101854.56;;;10.57;62.77
59409;BME280;45213;32.654;-115.458;2023-02-24T07:36:40;101859.06;;;10.63;62.77
59409;BME280;45213;32.654;-115.458;2023-02-24T07:39:15;101857.41;;;10.66;61.89
59409;BME280;45213;32.654;-115.458;2023-02-24T07:41:42;101861.63;;;10.61;61.66
59409;BME280;45213;32.654;-115.458;2023-02-24T07:44:15;101869.38;;;10.58;62.19
59409;BME280;45213;32.654;-115.458;2023-02-24T07:46:42;101865.78;;;10.55;62.57
59409;BME280;45213;32.654;-115.458;2023-02-24T07:49:13;101865.84;;;10.56;62.56
59409;BME280;45213;32.654;-115.458;2023-02-24T07:51:41;101875.34;;;10.54;63.17
59409;BME280;45213;32.654;-115.458;2023-02-24T07:54:10;101866.53;;;10.49;63.22
59409;BME280;45213;32.654;-115.458;2023-02-24T07:56:37;101872.47;;;10.45;63.07
59409;BME280;45213;32.654;-115.458;2023-02-24T07:59:12;101870.44;;;10.35;63.92
59409;BME280;45213;32.654;-115.458;2023-02-24T08:01:41;101873.81;;;10.31;65.01
59409;BME280;45213;32.654;-115.458;2023-02-24T08:04:19;101871.31;;;10.34;65.55
59409;BME280;45213;32.654;-115.458;2023-02-24T08:06:48;101864.38;;;10.34;65.56
59409;BME280;45213;32.654;-115.458;2023-02-24T08:09:26;101863.38;;;10.29;65.67
59409;BME280;45213;32.654;-115.458;2023-02-24T08:12:21;101868.13;;;10.14;66.22
59409;BME280;45213;32.654;-115.458;2023-02-24T08:14:50;101868.91;;;10.11;66.62
59409;BME280;45213;32.654;-115.458;2023-02-24T08:17:25;101877.53;;;10.10;67.23
59409;BME280;45213;32.654;-115.458;2023-02-24T08:19:53;101874.00;;;10.08;67.45
59409;BME280;45213;32.654;-115.458;2023-02-24T08:22:42;101868.66;;;10.02;67.13
59409;BME280;45213;32.654;-115.458;2023-02-24T08:25:13;101874.53;;;9.95;67.74
59409;BME280;45213;32.654;-115.458;2023-02-24T08:27:45;101876.28;;;9.96;68.05
59409;BME280;45213;32.654;-115.458;2023-02-24T08:30:22;101875.41;;;9.97;67.76
59409;BME280;45213;32.654;-115.458;2023-02-24T08:32:52;101873.75;;;9.99;68.10
59409;BME280;45213;32.654;-115.458;2023-02-24T08:35:27;101880.72;;;10.00;68.81
59409;BME280;45213;32.654;-115.458;2023-02-24T08:38:03;101881.53;;;9.97;68.45
59409;BME280;45213;32.654;-115.458;2023-02-24T08:40:32;101882.81;;;9.83;69.73
59409;BME280;45213;32.654;-115.458;2023-02-24T08:43:09;101873.06;;;9.74;68.98
59409;BME280;45213;32.654;-115.458;2023-02-24T08:48:27;101869.59;;;9.75;69.72
59409;BME280;45213;32.654;-115.458;2023-02-24T08:51:34;101873.34;;;9.85;69.41
59409;BME280;45213;32.654;-115.458;2023-02-24T08:54:08;101864.63;;;9.83;68.93
59409;BME280;45213;32.654;-115.458;2023-02-24T08:56:42;101864.06;;;9.63;69.99
59409;BME280;45213;32.654;-115.458;2023-02-24T08:59:12;101874.34;;;9.60;70.78
59409;BME280;45213;32.654;-115.458;2023-02-24T09:01:59;101877.00;;;9.61;71.54
59409;BME280;45213;32.654;-115.458;2023-02-24T09:05:01;101888.47;;;9.68;70.72
59409;BME280;45213;32.654;-115.458;2023-02-24T09:07:40;101872.88;;;9.68;70.70
59409;BME280;45213;32.654;-115.458;2023-02-24T09:10:13;101877.06;;;9.63;71.71
59409;BME280;45213;32.654;-115.458;2023-02-24T09:12:43;101881.31;;;9.61;72.32
59409;BME280;45213;32.654;-115.458;2023-02-24T09:15:12;101876.84;;;9.57;72.79
59409;BME280;45213;32.654;-115.458;2023-02-24T09:17:42;101878.31;;;9.49;72.61
59409;BME280;45213;32.654;-115.458;2023-02-24T09:20:13;101878.97;;;9.41;73.57
59409;BME280;45213;32.654;-115.458;2023-02-24T09:22:58;101884.25;;;9.45;73.65
59409;BME280;45213;32.654;-115.458;2023-02-24T09:25:30;101879.81;;;9.40;72.90
59409;BME280;45213;32.654;-115.458;2023-02-24T09:28:13;101870.34;;;9.43;72.77
59409;BME280;45213;32.654;-115.458;2023-02-24T09:30:46;101874.50;;;9.37;72.68
59409;BME280;45213;32.654;-115.458;2023-02-24T09:33:36;101865.63;;;9.31;73.23
59409;BME280;45213;32.654;-115.458;2023-02-24T09:36:32;101853.41;;;9.27;73.56
59409;BME280;45213;32.654;-115.458;2023-02-24T09:39:10;101862.22;;;9.32;72.90
59409;BME280;45213;32.654;-115.458;2023-02-24T09:44:41;101846.03;;;9.13;74.08
59409;BME280;45213;32.654;-115.458;2023-02-24T09:50:01;101844.69;;;9.26;73.17
59409;BME280;45213;32.654;-115.458;2023-02-24T09:52:30;101850.00;;;9.29;72.92
59409;BME280;45213;32.654;-115.458;2023-02-24T10:07:17;101865.34;;;8.94;74.27
59409;BME280;45213;32.654;-115.458;2023-02-24T10:10:02;101860.03;;;8.91;74.19
59409;BME280;45213;32.654;-115.458;2023-02-24T10:13:08;101862.44;;;8.85;75.04
59409;BME280;45213;32.654;-115.458;2023-02-24T10:15:42;101857.69;;;8.99;74.76
59409;BME280;45213;32.654;-115.458;2023-02-24T10:18:28;101857.81;;;9.02;74.19
59409;BME280;45213;32.654;-115.458;2023-02-24T10:26:26;101850.28;;;8.84;74.95
59409;BME280;45213;32.654;-115.458;2023-02-24T10:29:08;101859.03;;;8.86;75.28
59409;BME280;45213;32.654;-115.458;2023-02-24T10:31:49;101857.44;;;8.91;74.91
59409;BME280;45213;32.654;-115.458;2023-02-24T10:34:24;101857.31;;;8.87;74.88
59409;BME280;45213;32.654;-115.458;2023-02-24T10:37:17;101858.97;;;8.85;75.71
59409;BME280;45213;32.654;-115.458;2023-02-24T10:39:48;101865.72;;;8.80;75.72
59409;BME280;45213;32.654;-115.458;2023-02-24T10:42:23;101862.44;;;8.85;75.59
59409;BME280;45213;32.654;-115.458;2023-02-24T10:45:02;101860.63;;;8.83;75.87
59409;BME280;45213;32.654;-115.458;2023-02-24T10:47:38;101876.25;;;8.84;76.54
59409;BME280;45213;32.654;-115.458;2023-02-24T10:50:31;101865.97;;;8.87;76.76
59409;BME280;45213;32.654;-115.458;2023-02-24T10:53:05;101851.31;;;8.89;76.47
59409;BME280;45213;32.654;-115.458;2023-02-24T10:55:40;101856.44;;;8.86;76.80
59409;BME280;45213;32.654;-115.458;2023-02-24T10:58:15;101856.31;;;8.83;77.18
59409;BME280;45213;32.654;-115.458;2023-02-24T11:01:06;101851.59;;;8.71;76.71
59409;BME280;45213;32.654;-115.458;2023-02-24T11:03:53;101857.66;;;8.72;77.19
59409;BME280;45213;32.654;-115.458;2023-02-24T11:06:29;101854.88;;;8.66;77.01
59409;BME280;45213;32.654;-115.458;2023-02-24T11:12:01;101852.38;;;8.69;77.39
59409;BME280;45213;32.654;-115.458;2023-02-24T11:14:56;101852.16;;;8.63;76.87
59409;BME280;45213;32.654;-115.458;2023-02-24T11:17:58;101854.50;;;8.55;77.92
59409;BME280;45213;32.654;-115.458;2023-02-24T11:20:46;101853.41;;;8.48;77.27
59409;BME280;45213;32.654;-115.458;2023-02-24T11:23:17;101858.34;;;8.41;78.39
59409;BME280;45213;32.654;-115.458;2023-02-24T11:25:52;101864.56;;;8.46;78.33
59409;BME280;45213;32.654;-115.458;2023-02-24T11:34:36;101855.41;;;8.33;77.45
59409;BME280;45213;32.654;-115.458;2023-02-24T11:42:33;101848.72;;;8.40;77.33
59409;BME280;45213;32.654;-115.458;2023-02-24T11:45:31;101857.13;;;8.32;76.97
59409;BME280;45213;32.654;-115.458;2023-02-24T11:48:09;101869.78;;;8.23;77.48
59409;BME280;45213;32.654;-115.458;2023-02-24T11:50:49;101871.38;;;8.20;78.16
59409;BME280;45213;32.654;-115.458;2023-02-24T11:53:33;101873.06;;;8.18;78.25
59409;BME280;45213;32.654;-115.458;2023-02-24T11:56:08;101875.44;;;8.11;78.32
59409;BME280;45213;32.654;-115.458;2023-02-24T11:58:51;101887.56;;;8.12;77.12
59409;BME280;45213;32.654;-115.458;2023-02-24T12:04:59;101894.56;;;7.91;76.94
59409;BME280;45213;32.654;-115.458;2023-02-24T12:07:34;101900.72;;;7.94;76.38
59409;BME280;45213;32.654;-115.458;2023-02-24T12:17:51;101901.31;;;8.10;76.98
59409;BME280;45213;32.654;-115.458;2023-02-24T12:43:08;101911.22;;;7.98;76.96
59409;BME280;45213;32.654;-115.458;2023-02-24T12:51:20;101920.31;;;7.86;77.88
59409;BME280;45213;32.654;-115.458;2023-02-24T12:54:15;101917.75;;;7.88;77.67
59409;BME280;45213;32.654;-115.458;2023-02-24T12:56:54;101921.66;;;7.77;77.78
59409;BME280;45213;32.654;-115.458;2023-02-24T12:59:31;101927.09;;;7.83;77.46
59409;BME280;45213;32.654;-115.458;2023-02-24T13:02:23;101928.03;;;7.85;77.88
59409;BME280;45213;32.654;-115.458;2023-02-24T13:10:23;101939.94;;;7.80;78.70
59409;BME280;45213;32.654;-115.458;2023-02-24T13:13:24;101946.13;;;7.83;78.08
59409;BME280;45213;32.654;-115.458;2023-02-24T13:15:55;101951.13;;;7.79;78.17
59409;BME280;45213;32.654;-115.458;2023-02-24T13:18:24;101941.66;;;7.79;77.97
59409;BME280;45213;32.654;-115.458;2023-02-24T13:21:05;101948.72;;;7.83;77.84
59409;BME280;45213;32.654;-115.458;2023-02-24T13:23:33;101954.56;;;7.78;77.67
59409;BME280;45213;32.654;-115.458;2023-02-24T13:25:59;101951.69;;;7.70;77.92
59409;BME280;45213;32.654;-115.458;2023-02-24T13:28:29;101958.44;;;7.66;78.18
59409;BME280;45213;32.654;-115.458;2023-02-24T13:30:59;101965.00;;;7.58;78.06
59409;BME280;45213;32.654;-115.458;2023-02-24T13:33:30;101961.47;;;7.56;77.95
59409;BME280;45213;32.654;-115.458;2023-02-24T13:38:43;101964.97;;;7.57;77.88
59409;BME280;45213;32.654;-115.458;2023-02-24T13:50:00;101988.47;;;7.61;77.03
59409;BME280;45213;32.654;-115.458;2023-02-24T14:02:56;102010.00;;;7.59;78.21
59409;BME280;45213;32.654;-115.458;2023-02-24T14:05:27;102010.59;;;7.53;77.23
59409;BME280;45213;32.654;-115.458;2023-02-24T14:07:55;102001.75;;;7.48;77.41
59409;BME280;45213;32.654;-115.458;2023-02-24T14:10:30;102017.44;;;7.51;77.13
59409;BME280;45213;32.654;-115.458;2023-02-24T14:13:12;102017.56;;;7.54;76.77
59409;BME280;45213;32.654;-115.458;2023-02-24T14:15:43;102018.13;;;7.47;77.03
59409;BME280;45213;32.654;-115.458;2023-02-24T14:18:23;102023.75;;;7.58;77.67
59409;BME280;45213;32.654;-115.458;2023-02-24T14:20:52;102025.59;;;7.60;77.35
59409;BME280;45213;32.654;-115.458;2023-02-24T14:23:23;102035.94;;;7.60;77.43
59409;BME280;45213;32.654;-115.458;2023-02-24T14:25:56;102023.00;;;7.60;77.32
59409;BME280;45213;32.654;-115.458;2023-02-24T14:28:31;102025.00;;;7.67;76.19
59409;BME280;45213;32.654;-115.458;2023-02-24T14:31:07;102027.63;;;7.90;76.16
59409;BME280;45213;32.654;-115.458;2023-02-24T14:33:36;102027.19;;;8.92;74.36
59409;BME280;45213;32.654;-115.458;2023-02-24T14:36:19;102025.59;;;9.99;68.25
59409;BME280;45213;32.654;-115.458;2023-02-24T14:41:26;102028.47;;;12.01;58.51
59409;BME280;45213;32.654;-115.458;2023-02-24T14:43:53;102021.25;;;12.69;55.50
59409;BME280;45213;32.654;-115.458;2023-02-24T14:46:22;102023.41;;;12.92;54.00
59409;BME280;45213;32.654;-115.458;2023-02-24T14:48:53;102026.13;;;13.42;52.24
59409;BME280;45213;32.654;-115.458;2023-02-24T14:53:56;102034.94;;;14.69;47.70
59409;BME280;45213;32.654;-115.458;2023-02-24T14:56:29;102033.81;;;15.28;45.94
59409;BME280;45213;32.654;-115.458;2023-02-24T14:59:22;102036.09;;;15.83;43.97
59409;BME280;45213;32.654;-115.458;2023-02-24T15:01:54;102044.56;;;15.54;43.93
59409;BME280;45213;32.654;-115.458;2023-02-24T15:06:49;102034.81;;;16.69;41.28
59409;BME280;45213;32.654;-115.458;2023-02-24T15:09:19;102045.47;;;17.08;39.79
59409;BME280;45213;32.654;-115.458;2023-02-24T15:11:49;102043.72;;;17.22;38.64
59409;BME280;45213;32.654;-115.458;2023-02-24T15:14:19;102057.69;;;16.94;39.74
59409;BME280;45213;32.654;-115.458;2023-02-24T15:16:50;102063.00;;;16.97;39.20
59409;BME280;45213;32.654;-115.458;2023-02-24T15:19:32;102065.47;;;16.63;40.68
59409;BME280;45213;32.654;-115.458;2023-02-24T15:22:03;102056.78;;;16.84;38.91
59409;BME280;45213;32.654;-115.458;2023-02-24T15:24:33;102058.53;;;16.80;39.04
59409;BME280;45213;32.654;-115.458;2023-02-24T15:27:20;102068.09;;;16.63;39.44
59409;BME280;45213;32.654;-115.458;2023-02-24T15:30:06;102077.72;;;15.40;41.41